sensor_id;sensor_type;location;lat;lon;timestamp;P1;durP1;ratioP1;P2;durP2;ratioP2
13933;SDS011;7039;52.168;9.866;2023-04-07T03:45:25;16.93;;;8.90;;
13933;SDS011;7039;52.168;9.866;2023-04-07T03:47:52;14.30;;;9.60;;
13933;SDS011;7039;52.168;9.866;2023-04-07T03:50:18;13.93;;;8.87;;
13933;SDS011;7039;52.168;9.866;2023-04-07T03:52:45;15.27;;;9.03;;
13933;SDS011;7039;52.168;9.866;2023-04-07T03:55:11;18.17;;;9.17;;
13933;SDS011;7039;52.168;9.866;2023-04-07T03:57:38;14.47;;;9.53;;
13933;SDS011;7039;52.168;9.866;2023-04-07T04:00:05;14.10;;;9.13;;
13933;SDS011;7039;52.168;9.866;2023-04-07T04:02:33;16.13;;;9.20;;
13933;SDS011;7039;52.168;9.866;2023-04-07T04:05:00;16.50;;;9.53;;
13933;SDS011;7039;52.168;9.866;2023-04-07T04:07:26;18.03;;;10.20;;
13933;SDS011;7039;52.168;9.866;2023-04-07T04:09:53;17.00;;;9.83;;
13933;SDS011;7039;52.168;9.866;2023-04-07T04:12:20;19.63;;;10.30;;
13933;SDS011;7039;52.168;9.866;2023-04-07T04:14:46;19.50;;;11.33;;
13933;SDS011;7039;52.168;9.866;2023-04-07T04:17:13;16.57;;;10.27;;
13933;SDS011;7039;52.168;9.866;2023-04-07T04:19:41;18.73;;;10.50;;
13933;SDS011;7039;52.168;9.866;2023-04-07T04:22:07;18.40;;;11.30;;
13933;SDS011;7039;52.168;9.866;2023-04-07T04:24:34;18.63;;;10.80;;
13933;SDS011;7039;52.168;9.866;2023-04-07T04:27:00;21.80;;;11.57;;
13933;SDS011;7039;52.168;9.866;2023-04-07T04:29:27;18.53;;;10.97;;
13933;SDS011;7039;52.168;9.866;2023-04-07T04:31:53;19.47;;;10.90;;
13933;SDS011;7039;52.168;9.866;2023-04-07T04:34:20;15.57;;;9.63;;
13933;SDS011;7039;52.168;9.866;2023-04-07T04:36:48;17.90;;;11.13;;
13933;SDS011;7039;52.168;9.866;2023-04-07T04:39:14;20.77;;;10.97;;
13933;SDS011;7039;52.168;9.866;2023-04-07T04:41:41;21.33;;;11.17;;
13933;SDS011;7039;52.168;9.866;2023-04-07T04:44:07;17.17;;;10.93;;
13933;SDS011;7039;52.168;9.866;2023-04-07T04:46:34;19.10;;;10.63;;
13933;SDS011;7039;52.168;9.866;2023-04-07T04:49:00;17.43;;;10.87;;
13933;SDS011;7039;52.168;9.866;2023-04-07T04:51:27;20.00;;;11.53;;
13933;SDS011;7039;52.168;9.866;2023-04-07T04:53:55;20.90;;;11.57;;
13933;SDS011;7039;52.168;9.866;2023-04-07T04:56:21;17.60;;;11.77;;
13933;SDS011;7039;52.168;9.866;2023-04-07T04:58:48;19.37;;;11.90;;
13933;SDS011;7039;52.168;9.866;2023-04-07T05:01:14;23.57;;;11.30;;
13933;SDS011;7039;52.168;9.866;2023-04-07T05:03:41;18.17;;;11.07;;
13933;SDS011;7039;52.168;9.866;2023-04-07T05:06:08;17.50;;;11.57;;
13933;SDS011;7039;52.168;9.866;2023-04-07T05:08:34;21.47;;;11.73;;
13933;SDS011;7039;52.168;9.866;2023-04-07T05:11:02;19.80;;;11.20;;
13933;SDS011;7039;52.168;9.866;2023-04-07T05:13:29;19.80;;;12.53;;
13933;SDS011;7039;52.168;9.866;2023-04-07T05:15:55;22.20;;;12.17;;
13933;SDS011;7039;52.168;9.866;2023-04-07T05:18:22;19.87;;;12.70;;
13933;SDS011;7039;52.168;9.866;2023-04-07T05:20:48;19.03;;;11.60;;
13933;SDS011;7039;52.168;9.866;2023-04-07T05:23:15;22.07;;;12.03;;
13933;SDS011;7039;52.168;9.866;2023-04-07T05:25:41;18.93;;;10.90;;
13933;SDS011;7039;52.168;9.866;2023-04-07T05:28:09;19.60;;;11.63;;
13933;SDS011;7039;52.168;9.866;2023-04-07T05:30:36;17.33;;;11.57;;
13933;SDS011;7039;52.168;9.866;2023-04-07T05:33:02;17.63;;;10.90;;
13933;SDS011;7039;52.168;9.866;2023-04-07T05:35:29;20.20;;;11.70;;
13933;SDS011;7039;52.168;9.866;2023-04-07T05:37:56;21.17;;;11.90;;
13933;SDS011;7039;52.168;9.866;2023-04-07T05:40:22;17.00;;;11.13;;
13933;SDS011;7039;52.168;9.866;2023-04-07T05:42:49;18.80;;;11.23;;
13933;SDS011;7039;52.168;9.866;2023-04-07T05:45:17;18.50;;;11.10;;
13933;SDS011;7039;52.168;9.866;2023-04-07T05:47:44;17.40;;;10.67;;
13933;SDS011;7039;52.168;9.866;2023-04-07T05:50:11;18.20;;;10.90;;
13933;SDS011;7039;52.168;9.866;2023-04-07T05:52:38;20.37;;;10.93;;
13933;SDS011;7039;52.168;9.866;2023-04-07T05:55:05;20.73;;;11.67;;
13933;SDS011;7039;52.168;9.866;2023-04-07T05:57:32;18.30;;;11.07;;
13933;SDS011;7039;52.168;9.866;2023-04-07T05:59:58;20.27;;;11.00;;
13933;SDS011;7039;52.168;9.866;2023-04-07T06:02:29;20.77;;;11.50;;
13933;SDS011;7039;52.168;9.866;2023-04-07T06:04:55;16.70;;;11.60;;
13933;SDS011;7039;52.168;9.866;2023-04-07T06:07:22;19.30;;;11.87;;
13933;SDS011;7039;52.168;9.866;2023-04-07T06:09:48;19.13;;;11.47;;
13933;SDS011;7039;52.168;9.866;2023-04-07T06:12:15;19.00;;;11.30;;
13933;SDS011;7039;52.168;9.866;2023-04-07T06:14:41;19.00;;;12.33;;
13933;SDS011;7039;52.168;9.866;2023-04-07T06:17:08;22.40;;;14.23;;
13933;SDS011;7039;52.168;9.866;2023-04-07T06:19:36;19.03;;;12.03;;
13933;SDS011;7039;52.168;9.866;2023-04-07T06:22:02;19.63;;;12.23;;
13933;SDS011;7039;52.168;9.866;2023-04-07T06:24:29;21.07;;;12.47;;
13933;SDS011;7039;52.168;9.866;2023-04-07T06:26:55;18.43;;;12.57;;
13933;SDS011;7039;52.168;9.866;2023-04-07T06:29:22;20.63;;;12.27;;
13933;SDS011;7039;52.168;9.866;2023-04-07T06:31:49;17.63;;;11.67;;
13933;SDS011;7039;52.168;9.866;2023-04-07T06:34:15;18.37;;;12.20;;
13933;SDS011;7039;52.168;9.866;2023-04-07T06:36:43;18.27;;;13.00;;
13933;SDS011;7039;52.168;9.866;2023-04-07T06:39:10;19.53;;;11.63;;
13933;SDS011;7039;52.168;9.866;2023-04-07T06:41:36;22.90;;;13.03;;
13933;SDS011;7039;52.168;9.866;2023-04-07T06:44:06;18.80;;;13.03;;
13933;SDS011;7039;52.168;9.866;2023-04-07T06:46:34;19.80;;;12.93;;
13933;SDS011;7039;52.168;9.866;2023-04-07T06:49:00;19.63;;;12.57;;
13933;SDS011;7039;52.168;9.866;2023-04-07T06:51:27;23.53;;;13.40;;
13933;SDS011;7039;52.168;9.866;2023-04-07T06:53:55;23.97;;;14.63;;
13933;SDS011;7039;52.168;9.866;2023-04-07T06:56:22;20.20;;;12.80;;
13933;SDS011;7039;52.168;9.866;2023-04-07T06:58:49;22.37;;;13.40;;
13933;SDS011;7039;52.168;9.866;2023-04-07T07:01:16;21.77;;;12.90;;
13933;SDS011;7039;52.168;9.866;2023-04-07T07:03:42;19.83;;;12.97;;
13933;SDS011;7039;52.168;9.866;2023-04-07T07:06:08;19.23;;;12.50;;
13933;SDS011;7039;52.168;9.866;2023-04-07T07:08:35;19.17;;;13.03;;
13933;SDS011;7039;52.168;9.866;2023-04-07T07:11:03;22.00;;;12.93;;
13933;SDS011;7039;52.168;9.866;2023-04-07T07:13:29;19.80;;;12.73;;
13933;SDS011;7039;52.168;9.866;2023-04-07T07:15:56;19.10;;;13.30;;
13933;SDS011;7039;52.168;9.866;2023-04-07T07:18:22;17.70;;;12.60;;
13933;SDS011;7039;52.168;9.866;2023-04-07T07:20:49;19.70;;;12.93;;
13933;SDS011;7039;52.168;9.866;2023-04-07T07:23:15;18.87;;;12.43;;
13933;SDS011;7039;52.168;9.866;2023-04-07T07:25:42;19.37;;;12.40;;
13933;SDS011;7039;52.168;9.866;2023-04-07T07:28:10;18.77;;;12.53;;
13933;SDS011;7039;52.168;9.866;2023-04-07T07:30:37;21.97;;;12.90;;
13933;SDS011;7039;52.168;9.866;2023-04-07T07:33:04;18.30;;;12.37;;
13933;SDS011;7039;52.168;9.866;2023-04-07T07:35:31;15.77;;;11.80;;
13933;SDS011;7039;52.168;9.866;2023-04-07T07:37:57;17.77;;;12.90;;
13933;SDS011;7039;52.168;9.866;2023-04-07T07:40:24;20.90;;;12.90;;
13933;SDS011;7039;52.168;9.866;2023-04-07T07:42:50;18.73;;;12.50;;
13933;SDS011;7039;52.168;9.866;2023-04-07T07:45:18;19.87;;;12.37;;
13933;SDS011;7039;52.168;9.866;2023-04-07T07:47:45;18.67;;;12.00;;
13933;SDS011;7039;52.168;9.866;2023-04-07T07:50:11;20.07;;;12.00;;
13933;SDS011;7039;52.168;9.866;2023-04-07T07:52:37;20.03;;;12.03;;
13933;SDS011;7039;52.168;9.866;2023-04-07T07:55:04;17.33;;;12.07;;
13933;SDS011;7039;52.168;9.866;2023-04-07T07:57:31;20.03;;;11.93;;
13933;SDS011;7039;52.168;9.866;2023-04-07T07:59:57;18.30;;;12.00;;
13933;SDS011;7039;52.168;9.866;2023-04-07T08:02:25;19.57;;;11.33;;
13933;SDS011;7039;52.168;9.866;2023-04-07T08:04:55;17.20;;;10.97;;
13933;SDS011;7039;52.168;9.866;2023-04-07T08:07:21;15.37;;;10.53;;
13933;SDS011;7039;52.168;9.866;2023-04-07T08:09:48;14.80;;;10.20;;
13933;SDS011;7039;52.168;9.866;2023-04-07T08:12:14;16.17;;;11.20;;
13933;SDS011;7039;52.168;9.866;2023-04-07T08:14:41;15.43;;;11.13;;
13933;SDS011;7039;52.168;9.866;2023-04-07T08:17:07;18.80;;;11.40;;
13933;SDS011;7039;52.168;9.866;2023-04-07T08:19:35;16.17;;;11.53;;
13933;SDS011;7039;52.168;9.866;2023-04-07T08:22:02;15.33;;;11.03;;
13933;SDS011;7039;52.168;9.866;2023-04-07T08:24:28;16.23;;;10.70;;
13933;SDS011;7039;52.168;9.866;2023-04-07T08:26:55;18.63;;;10.70;;
13933;SDS011;7039;52.168;9.866;2023-04-07T08:29:21;16.33;;;10.63;;
13933;SDS011;7039;52.168;9.866;2023-04-07T08:31:48;14.03;;;10.03;;
13933;SDS011;7039;52.168;9.866;2023-04-07T08:34:14;16.50;;;10.63;;
13933;SDS011;7039;52.168;9.866;2023-04-07T08:36:42;15.30;;;10.27;;
13933;SDS011;7039;52.168;9.866;2023-04-07T08:39:08;14.17;;;10.30;;
13933;SDS011;7039;52.168;9.866;2023-04-07T08:41:35;15.80;;;11.03;;
13933;SDS011;7039;52.168;9.866;2023-04-07T08:44:03;14.30;;;10.20;;
13933;SDS011;7039;52.168;9.866;2023-04-07T08:46:30;19.23;;;11.13;;
13933;SDS011;7039;52.168;9.866;2023-04-07T08:48:59;17.53;;;10.97;;
13933;SDS011;7039;52.168;9.866;2023-04-07T08:51:27;15.30;;;10.30;;
13933;SDS011;7039;52.168;9.866;2023-04-07T08:53:59;17.50;;;10.23;;
13933;SDS011;7039;52.168;9.866;2023-04-07T08:56:31;13.33;;;9.93;;
13933;SDS011;7039;52.168;9.866;2023-04-07T08:58:57;13.53;;;10.10;;
13933;SDS011;7039;52.168;9.866;2023-04-07T09:01:25;15.70;;;10.60;;
13933;SDS011;7039;52.168;9.866;2023-04-07T09:03:52;15.67;;;10.40;;
13933;SDS011;7039;52.168;9.866;2023-04-07T09:06:19;15.13;;;10.30;;
13933;SDS011;7039;52.168;9.866;2023-04-07T09:08:45;18.13;;;10.03;;
13933;SDS011;7039;52.168;9.866;2023-04-07T09:11:13;14.97;;;10.40;;
13933;SDS011;7039;52.168;9.866;2023-04-07T09:13:40;15.13;;;10.80;;
13933;SDS011;7039;52.168;9.866;2023-04-07T09:16:06;14.60;;;10.43;;
13933;SDS011;7039;52.168;9.866;2023-04-07T09:18:33;15.00;;;10.00;;
13933;SDS011;7039;52.168;9.866;2023-04-07T09:21:01;15.13;;;9.70;;
13933;SDS011;7039;52.168;9.866;2023-04-07T09:23:29;15.90;;;9.47;;
13933;SDS011;7039;52.168;9.866;2023-04-07T09:25:57;15.67;;;9.60;;
13933;SDS011;7039;52.168;9.866;2023-04-07T09:28:41;20.10;;;11.37;;
13933;SDS011;7039;52.168;9.866;2023-04-07T09:31:08;16.43;;;10.40;;
13933;SDS011;7039;52.168;9.866;2023-04-07T09:33:35;13.33;;;8.77;;
13933;SDS011;7039;52.168;9.866;2023-04-07T09:36:02;14.60;;;9.50;;
13933;SDS011;7039;52.168;9.866;2023-04-07T09:38:33;13.03;;;8.17;;
13933;SDS011;7039;52.168;9.866;2023-04-07T09:41:04;12.30;;;8.67;;
13933;SDS011;7039;52.168;9.866;2023-04-07T09:43:31;10.33;;;7.73;;
13933;SDS011;7039;52.168;9.866;2023-04-07T09:46:06;12.87;;;8.40;;
13933;SDS011;7039;52.168;9.866;2023-04-07T09:48:37;15.90;;;9.03;;
13933;SDS011;7039;52.168;9.866;2023-04-07T09:51:04;16.97;;;10.80;;
13933;SDS011;7039;52.168;9.866;2023-04-07T09:53:42;17.63;;;9.30;;
13933;SDS011;7039;52.168;9.866;2023-04-07T09:56:10;20.47;;;11.80;;
13933;SDS011;7039;52.168;9.866;2023-04-07T09:58:37;20.13;;;12.20;;
13933;SDS011;7039;52.168;9.866;2023-04-07T10:01:07;16.43;;;10.90;;
13933;SDS011;7039;52.168;9.866;2023-04-07T10:03:34;15.97;;;8.93;;
13933;SDS011;7039;52.168;9.866;2023-04-07T10:06:01;13.43;;;8.20;;
13933;SDS011;7039;52.168;9.866;2023-04-07T10:08:30;13.07;;;9.00;;
13933;SDS011;7039;52.168;9.866;2023-04-07T10:10:58;15.27;;;9.50;;
13933;SDS011;7039;52.168;9.866;2023-04-07T10:13:27;15.93;;;8.83;;
13933;SDS011;7039;52.168;9.866;2023-04-07T10:15:54;17.20;;;8.73;;
13933;SDS011;7039;52.168;9.866;2023-04-07T10:18:22;12.13;;;8.17;;
13933;SDS011;7039;52.168;9.866;2023-04-07T10:20:53;12.17;;;8.50;;
13933;SDS011;7039;52.168;9.866;2023-04-07T10:23:23;12.20;;;8.60;;
13933;SDS011;7039;52.168;9.866;2023-04-07T10:25:53;10.50;;;8.17;;
13933;SDS011;7039;52.168;9.866;2023-04-07T10:28:22;15.60;;;8.40;;
13933;SDS011;7039;52.168;9.866;2023-04-07T10:30:51;14.47;;;8.60;;
13933;SDS011;7039;52.168;9.866;2023-04-07T10:33:27;14.60;;;8.17;;
13933;SDS011;7039;52.168;9.866;2023-04-07T10:36:10;14.30;;;8.50;;
13933;SDS011;7039;52.168;9.866;2023-04-07T10:38:36;12.70;;;8.07;;
13933;SDS011;7039;52.168;9.866;2023-04-07T10:43:57;13.73;;;8.77;;
13933;SDS011;7039;52.168;9.866;2023-04-07T10:46:23;12.47;;;8.43;;
13933;SDS011;7039;52.168;9.866;2023-04-07T10:51:37;11.43;;;7.97;;
13933;SDS011;7039;52.168;9.866;2023-04-07T10:59:36;12.43;;;8.03;;
13933;SDS011;7039;52.168;9.866;2023-04-07T11:04:56;15.63;;;8.43;;
13933;SDS011;7039;52.168;9.866;2023-04-07T11:10:13;17.00;;;8.23;;
13933;SDS011;7039;52.168;9.866;2023-04-07T11:12:40;14.37;;;8.73;;
13933;SDS011;7039;52.168;9.866;2023-04-07T11:15:16;16.80;;;7.60;;
13933;SDS011;7039;52.168;9.866;2023-04-07T11:17:44;15.50;;;9.50;;
13933;SDS011;7039;52.168;9.866;2023-04-07T11:20:12;16.93;;;9.13;;
13933;SDS011;7039;52.168;9.866;2023-04-07T11:22:38;13.37;;;8.47;;
13933;SDS011;7039;52.168;9.866;2023-04-07T11:25:18;12.60;;;8.60;;
13933;SDS011;7039;52.168;9.866;2023-04-07T11:27:45;13.60;;;8.07;;
13933;SDS011;7039;52.168;9.866;2023-04-07T11:30:13;14.67;;;8.27;;
13933;SDS011;7039;52.168;9.866;2023-04-07T11:32:42;15.17;;;8.00;;
13933;SDS011;7039;52.168;9.866;2023-04-07T11:35:14;17.17;;;8.57;;
13933;SDS011;7039;52.168;9.866;2023-04-07T11:37:41;12.30;;;7.97;;
13933;SDS011;7039;52.168;9.866;2023-04-07T11:40:08;13.10;;;8.13;;
13933;SDS011;7039;52.168;9.866;2023-04-07T11:42:36;16.73;;;8.67;;
13933;SDS011;7039;52.168;9.866;2023-04-07T11:45:03;15.77;;;8.60;;
13933;SDS011;7039;52.168;9.866;2023-04-07T11:47:34;12.77;;;8.53;;
13933;SDS011;7039;52.168;9.866;2023-04-07T11:50:01;18.10;;;9.43;;
13933;SDS011;7039;52.168;9.866;2023-04-07T11:52:29;13.17;;;8.80;;
13933;SDS011;7039;52.168;9.866;2023-04-07T11:55:06;14.07;;;9.03;;
13933;SDS011;7039;52.168;9.866;2023-04-07T11:57:42;14.27;;;8.80;;
13933;SDS011;7039;52.168;9.866;2023-04-07T12:00:09;15.57;;;9.07;;
13933;SDS011;7039;52.168;9.866;2023-04-07T12:02:37;15.37;;;8.97;;
13933;SDS011;7039;52.168;9.866;2023-04-07T12:05:05;18.57;;;9.60;;
13933;SDS011;7039;52.168;9.866;2023-04-07T12:07:35;16.67;;;9.03;;
13933;SDS011;7039;52.168;9.866;2023-04-07T12:10:17;14.50;;;9.33;;
13933;SDS011;7039;52.168;9.866;2023-04-07T12:12:44;15.93;;;9.33;;
13933;SDS011;7039;52.168;9.866;2023-04-07T12:15:11;14.10;;;9.47;;
13933;SDS011;7039;52.168;9.866;2023-04-07T12:17:42;11.50;;;8.97;;
13933;SDS011;7039;52.168;9.866;2023-04-07T12:20:10;15.97;;;9.73;;
13933;SDS011;7039;52.168;9.866;2023-04-07T12:22:38;14.37;;;9.10;;
13933;SDS011;7039;52.168;9.866;2023-04-07T12:25:05;14.23;;;8.83;;
13933;SDS011;7039;52.168;9.866;2023-04-07T12:27:32;12.10;;;9.13;;
13933;SDS011;7039;52.168;9.866;2023-04-07T12:29:59;12.37;;;9.20;;
13933;SDS011;7039;52.168;9.866;2023-04-07T12:32:25;13.57;;;9.30;;
13933;SDS011;7039;52.168;9.866;2023-04-07T12:34:52;13.93;;;9.37;;
13933;SDS011;7039;52.168;9.866;2023-04-07T12:37:19;14.87;;;10.33;;
13933;SDS011;7039;52.168;9.866;2023-04-07T12:39:47;17.50;;;9.90;;
13933;SDS011;7039;52.168;9.866;2023-04-07T12:42:13;15.07;;;9.47;;
13933;SDS011;7039;52.168;9.866;2023-04-07T12:44:40;15.63;;;10.10;;
13933;SDS011;7039;52.168;9.866;2023-04-07T12:47:06;14.93;;;9.40;;
13933;SDS011;7039;52.168;9.866;2023-04-07T12:49:33;15.10;;;9.97;;
13933;SDS011;7039;52.168;9.866;2023-04-07T12:51:59;14.30;;;9.87;;
13933;SDS011;7039;52.168;9.866;2023-04-07T12:54:26;14.47;;;9.90;;
13933;SDS011;7039;52.168;9.866;2023-04-07T12:56:55;16.43;;;9.80;;
13933;SDS011;7039;52.168;9.866;2023-04-07T12:59:22;14.93;;;9.57;;
13933;SDS011;7039;52.168;9.866;2023-04-07T13:01:49;14.00;;;9.80;;
13933;SDS011;7039;52.168;9.866;2023-04-07T13:04:16;16.10;;;9.50;;
13933;SDS011;7039;52.168;9.866;2023-04-07T13:06:42;15.20;;;10.50;;
13933;SDS011;7039;52.168;9.866;2023-04-07T13:09:09;13.37;;;9.83;;
13933;SDS011;7039;52.168;9.866;2023-04-07T13:11:35;14.30;;;9.97;;
13933;SDS011;7039;52.168;9.866;2023-04-07T13:14:03;13.80;;;9.30;;
13933;SDS011;7039;52.168;9.866;2023-04-07T13:16:31;18.17;;;10.47;;
13933;SDS011;7039;52.168;9.866;2023-04-07T13:18:58;14.00;;;9.60;;
13933;SDS011;7039;52.168;9.866;2023-04-07T13:21:26;16.20;;;9.37;;
13933;SDS011;7039;52.168;9.866;2023-04-07T13:23:52;13.33;;;9.43;;
13933;SDS011;7039;52.168;9.866;2023-04-07T13:26:19;17.47;;;10.17;;
13933;SDS011;7039;52.168;9.866;2023-04-07T13:28:46;11.13;;;8.57;;
13933;SDS011;7039;52.168;9.866;2023-04-07T13:31:14;14.13;;;9.70;;
13933;SDS011;7039;52.168;9.866;2023-04-07T13:33:40;14.67;;;10.17;;
13933;SDS011;7039;52.168;9.866;2023-04-07T13:36:07;16.53;;;9.47;;
13933;SDS011;7039;52.168;9.866;2023-04-07T13:38:34;12.17;;;9.37;;
13933;SDS011;7039;52.168;9.866;2023-04-07T13:41:01;13.13;;;9.10;;
13933;SDS011;7039;52.168;9.866;2023-04-07T13:43:27;15.30;;;9.20;;
13933;SDS011;7039;52.168;9.866;2023-04-07T13:45:54;14.00;;;9.07;;
13933;SDS011;7039;52.168;9.866;2023-04-07T13:48:22;13.27;;;9.17;;
13933;SDS011;7039;52.168;9.866;2023-04-07T13:50:49;11.10;;;8.80;;
13933;SDS011;7039;52.168;9.866;2023-04-07T13:53:15;12.83;;;9.00;;
13933;SDS011;7039;52.168;9.866;2023-04-07T13:55:42;12.30;;;9.23;;
13933;SDS011;7039;52.168;9.866;2023-04-07T13:58:10;13.37;;;8.87;;
13933;SDS011;7039;52.168;9.866;2023-04-07T14:00:36;10.03;;;7.93;;
13933;SDS011;7039;52.168;9.866;2023-04-07T14:03:04;12.77;;;8.50;;
13933;SDS011;7039;52.168;9.866;2023-04-07T14:05:32;11.77;;;8.57;;
13933;SDS011;7039;52.168;9.866;2023-04-07T14:07:59;11.07;;;8.93;;
13933;SDS011;7039;52.168;9.866;2023-04-07T14:10:26;11.73;;;8.33;;
13933;SDS011;7039;52.168;9.866;2023-04-07T14:12:53;12.23;;;8.30;;
13933;SDS011;7039;52.168;9.866;2023-04-07T14:15:20;9.32;;;7.63;;
13933;SDS011;7039;52.168;9.866;2023-04-07T14:17:46;11.60;;;8.27;;
13933;SDS011;7039;52.168;9.866;2023-04-07T14:20:13;10.73;;;7.47;;
13933;SDS011;7039;52.168;9.866;2023-04-07T14:22:41;12.88;;;8.65;;
13933;SDS011;7039;52.168;9.866;2023-04-07T14:25:07;10.45;;;7.80;;
13933;SDS011;7039;52.168;9.866;2023-04-07T14:27:34;8.95;;;7.50;;
13933;SDS011;7039;52.168;9.866;2023-04-07T14:30:01;11.00;;;7.65;;
13933;SDS011;7039;52.168;9.866;2023-04-07T14:32:27;10.88;;;8.35;;
13933;SDS011;7039;52.168;9.866;2023-04-07T14:34:54;9.80;;;7.60;;
13933;SDS011;7039;52.168;9.866;2023-04-07T14:37:23;10.80;;;7.78;;
13933;SDS011;7039;52.168;9.866;2023-04-07T14:39:51;10.65;;;7.63;;
13933;SDS011;7039;52.168;9.866;2023-04-07T14:42:18;8.27;;;6.68;;
13933;SDS011;7039;52.168;9.866;2023-04-07T14:44:44;10.35;;;7.20;;
13933;SDS011;7039;52.168;9.866;2023-04-07T14:47:11;11.38;;;6.80;;
13933;SDS011;7039;52.168;9.866;2023-04-07T14:49:38;8.40;;;6.93;;
13933;SDS011;7039;52.168;9.866;2023-04-07T14:52:04;7.85;;;6.90;;
13933;SDS011;7039;52.168;9.866;2023-04-07T14:54:31;12.80;;;6.70;;
13933;SDS011;7039;52.168;9.866;2023-04-07T14:56:59;8.52;;;6.30;;
13933;SDS011;7039;52.168;9.866;2023-04-07T14:59:25;10.30;;;6.30;;
13933;SDS011;7039;52.168;9.866;2023-04-07T15:01:51;7.53;;;6.28;;
13933;SDS011;7039;52.168;9.866;2023-04-07T15:04:18;7.63;;;6.57;;
13933;SDS011;7039;52.168;9.866;2023-04-07T15:06:44;10.35;;;7.15;;
13933;SDS011;7039;52.168;9.866;2023-04-07T15:09:11;8.50;;;6.85;;
13933;SDS011;7039;52.168;9.866;2023-04-07T15:11:38;9.65;;;6.25;;
13933;SDS011;7039;52.168;9.866;2023-04-07T15:14:05;8.63;;;6.20;;
13933;SDS011;7039;52.168;9.866;2023-04-07T15:16:32;9.43;;;6.13;;
13933;SDS011;7039;52.168;9.866;2023-04-07T15:18:59;6.95;;;6.25;;
13933;SDS011;7039;52.168;9.866;2023-04-07T15:21:25;9.90;;;6.47;;
13933;SDS011;7039;52.168;9.866;2023-04-07T15:23:52;7.38;;;6.28;;
13933;SDS011;7039;52.168;9.866;2023-04-07T15:26:18;8.25;;;6.35;;
13933;SDS011;7039;52.168;9.866;2023-04-07T15:28:45;7.22;;;5.65;;
13933;SDS011;7039;52.168;9.866;2023-04-07T15:31:13;6.88;;;5.93;;
13933;SDS011;7039;52.168;9.866;2023-04-07T15:33:40;8.77;;;6.13;;
13933;SDS011;7039;52.168;9.866;2023-04-07T15:36:08;6.50;;;5.80;;
13933;SDS011;7039;52.168;9.866;2023-04-07T15:38:35;7.03;;;5.22;;
13933;SDS011;7039;52.168;9.866;2023-04-07T15:41:02;9.18;;;5.53;;
13933;SDS011;7039;52.168;9.866;2023-04-07T15:43:29;7.72;;;6.05;;
13933;SDS011;7039;52.168;9.866;2023-04-07T15:45:55;7.60;;;5.68;;
13933;SDS011;7039;52.168;9.866;2023-04-07T15:48:23;8.33;;;5.67;;
13933;SDS011;7039;52.168;9.866;2023-04-07T15:50:51;6.47;;;4.95;;
13933;SDS011;7039;52.168;9.866;2023-04-07T15:53:18;10.02;;;5.28;;
13933;SDS011;7039;52.168;9.866;2023-04-07T15:55:45;7.18;;;5.65;;
13933;SDS011;7039;52.168;9.866;2023-04-07T15:58:11;6.90;;;5.30;;
13933;SDS011;7039;52.168;9.866;2023-04-07T16:00:37;6.53;;;5.45;;
13933;SDS011;7039;52.168;9.866;2023-04-07T16:03:05;10.00;;;5.55;;
13933;SDS011;7039;52.168;9.866;2023-04-07T16:05:32;7.38;;;5.32;;
13933;SDS011;7039;52.168;9.866;2023-04-07T16:07:59;6.20;;;5.00;;
13933;SDS011;7039;52.168;9.866;2023-04-07T16:10:25;6.70;;;5.50;;
13933;SDS011;7039;52.168;9.866;2023-04-07T16:12:52;7.70;;;5.53;;
13933;SDS011;7039;52.168;9.866;2023-04-07T16:15:18;7.67;;;5.57;;
13933;SDS011;7039;52.168;9.866;2023-04-07T16:17:45;9.10;;;5.40;;
13933;SDS011;7039;52.168;9.866;2023-04-07T16:20:13;7.53;;;5.17;;
13933;SDS011;7039;52.168;9.866;2023-04-07T16:22:41;8.03;;;5.77;;
13933;SDS011;7039;52.168;9.866;2023-04-07T16:25:09;10.00;;;5.83;;
13933;SDS011;7039;52.168;9.866;2023-04-07T16:27:36;8.10;;;5.43;;
13933;SDS011;7039;52.168;9.866;2023-04-07T16:30:03;8.60;;;5.80;;
13933;SDS011;7039;52.168;9.866;2023-04-07T16:32:30;7.70;;;5.90;;
13933;SDS011;7039;52.168;9.866;2023-04-07T16:34:57;10.40;;;6.33;;
13933;SDS011;7039;52.168;9.866;2023-04-07T16:37:23;10.67;;;5.47;;
13933;SDS011;7039;52.168;9.866;2023-04-07T16:39:51;6.93;;;5.60;;
13933;SDS011;7039;52.168;9.866;2023-04-07T16:42:20;11.03;;;5.80;;
13933;SDS011;7039;52.168;9.866;2023-04-07T16:44:46;8.23;;;5.40;;
13933;SDS011;7039;52.168;9.866;2023-04-07T16:47:13;8.27;;;5.33;;
13933;SDS011;7039;52.168;9.866;2023-04-07T16:49:39;7.43;;;5.57;;
13933;SDS011;7039;52.168;9.866;2023-04-07T16:52:06;7.23;;;5.23;;
13933;SDS011;7039;52.168;9.866;2023-04-07T16:54:32;6.50;;;5.80;;
13933;SDS011;7039;52.168;9.866;2023-04-07T16:57:00;9.47;;;6.10;;
13933;SDS011;7039;52.168;9.866;2023-04-07T16:59:27;7.67;;;5.80;;
13933;SDS011;7039;52.168;9.866;2023-04-07T17:01:53;7.57;;;5.60;;
13933;SDS011;7039;52.168;9.866;2023-04-07T17:04:20;8.43;;;5.20;;
13933;SDS011;7039;52.168;9.866;2023-04-07T17:06:46;7.30;;;5.60;;
13933;SDS011;7039;52.168;9.866;2023-04-07T17:09:13;8.33;;;5.77;;
13933;SDS011;7039;52.168;9.866;2023-04-07T17:11:40;8.23;;;5.90;;
13933;SDS011;7039;52.168;9.866;2023-04-07T17:14:08;8.60;;;5.57;;
13933;SDS011;7039;52.168;9.866;2023-04-07T17:16:34;8.53;;;5.67;;
13933;SDS011;7039;52.168;9.866;2023-04-07T17:19:01;9.20;;;5.83;;
13933;SDS011;7039;52.168;9.866;2023-04-07T17:21:27;8.17;;;5.87;;
13933;SDS011;7039;52.168;9.866;2023-04-07T17:23:55;8.77;;;5.10;;
13933;SDS011;7039;52.168;9.866;2023-04-07T17:26:21;7.80;;;6.03;;
13933;SDS011;7039;52.168;9.866;2023-04-07T17:28:48;8.07;;;6.00;;
13933;SDS011;7039;52.168;9.866;2023-04-07T17:31:16;23.83;;;21.30;;
13933;SDS011;7039;52.168;9.866;2023-04-07T17:33:43;10.60;;;8.67;;
13933;SDS011;7039;52.168;9.866;2023-04-07T17:36:10;9.93;;;6.77;;
13933;SDS011;7039;52.168;9.866;2023-04-07T17:38:37;12.40;;;6.70;;
13933;SDS011;7039;52.168;9.866;2023-04-07T17:41:03;13.30;;;6.80;;
13933;SDS011;7039;52.168;9.866;2023-04-07T17:43:30;11.30;;;6.60;;
13933;SDS011;7039;52.168;9.866;2023-04-07T17:45:57;11.63;;;6.37;;
13933;SDS011;7039;52.168;9.866;2023-04-07T17:48:25;12.80;;;6.60;;
13933;SDS011;7039;52.168;9.866;2023-04-07T17:50:51;9.87;;;6.50;;
13933;SDS011;7039;52.168;9.866;2023-04-07T17:53:18;7.83;;;5.27;;
13933;SDS011;7039;52.168;9.866;2023-04-07T17:55:44;9.77;;;5.53;;
13933;SDS011;7039;52.168;9.866;2023-04-07T17:58:11;9.27;;;5.70;;
13933;SDS011;7039;52.168;9.866;2023-04-07T18:00:37;6.80;;;5.07;;
13933;SDS011;7039;52.168;9.866;2023-04-07T18:03:04;7.37;;;4.90;;
13933;SDS011;7039;52.168;9.866;2023-04-07T18:05:32;8.57;;;5.00;;
13933;SDS011;7039;52.168;9.866;2023-04-07T18:07:59;7.07;;;4.67;;
13933;SDS011;7039;52.168;9.866;2023-04-07T18:10:25;7.53;;;4.40;;
13933;SDS011;7039;52.168;9.866;2023-04-07T18:12:52;10.83;;;5.00;;
13933;SDS011;7039;52.168;9.866;2023-04-07T18:15:18;8.33;;;4.37;;
13933;SDS011;7039;52.168;9.866;2023-04-07T18:17:45;5.70;;;4.07;;
13933;SDS011;7039;52.168;9.866;2023-04-07T18:20:16;7.20;;;4.00;;
13933;SDS011;7039;52.168;9.866;2023-04-07T18:22:45;5.97;;;3.70;;
13933;SDS011;7039;52.168;9.866;2023-04-07T18:25:12;6.00;;;4.13;;
13933;SDS011;7039;52.168;9.866;2023-04-07T18:27:39;6.60;;;4.03;;
13933;SDS011;7039;52.168;9.866;2023-04-07T18:30:06;7.37;;;4.40;;
13933;SDS011;7039;52.168;9.866;2023-04-07T18:32:33;5.63;;;4.10;;
13933;SDS011;7039;52.168;9.866;2023-04-07T18:35:00;7.57;;;3.77;;
13933;SDS011;7039;52.168;9.866;2023-04-07T18:37:26;4.90;;;3.70;;
13933;SDS011;7039;52.168;9.866;2023-04-07T18:39:55;5.60;;;3.60;;
13933;SDS011;7039;52.168;9.866;2023-04-07T18:42:21;5.70;;;3.30;;
13933;SDS011;7039;52.168;9.866;2023-04-07T18:44:48;4.87;;;3.97;;
13933;SDS011;7039;52.168;9.866;2023-04-07T18:47:14;13.70;;;4.00;;